Time;durP1;ratioP1;P1;durP2;ratioP2;P2;SDS_P1;SDS_P2;PMS_P1;PMS_P2;Temp;Humidity;BMP_temperature;BMP_pressure;BME280_temperature;BME280_humidity;BME280_pressure;Samples;Min_cycle;Max_cycle;Signal;HPM_P1;HPM_P2
2022/10/25 00:01:27;;;;;;;5.70;1.83;;;;;;;;;;4976454;28;20038;-60
2022/10/25 00:03:53;;;;;;;6.88;2.00;;;;;;;;;;4982233;28;20029;-60
2022/10/25 00:06:19;;;;;;;8.35;1.90;;;;;;;;;;4989700;28;20035;-60
2022/10/25 00:08:44;;;;;;;6.93;1.95;;;;;;;;;;4981269;28;20440;-60
2022/10/25 00:11:20;;;;;;;6.03;1.77;;;;;;;;;;4993803;28;20043;-60
2022/10/25 00:13:48;;;;;;;7.22;2.15;;;;;;;;;;4987169;28;20045;-60
2022/10/25 00:16:15;;;;;;;4.70;1.58;;;;;;;;;;4995099;28;20039;-60
2022/10/25 00:18:41;;;;;;;10.60;1.95;;;;;;;;;;4981935;28;20035;-60
2022/10/25 00:21:06;;;;;;;8.50;2.13;;;;;;;;;;4976321;28;20321;-60
2022/10/25 00:23:31;;;;;;;10.57;1.70;;;;;;;;;;4974369;28;20051;-60
2022/10/25 00:26:05;;;;;;;8.98;1.88;;;;;;;;;;4974153;28;20286;-60
2022/10/25 00:28:30;;;;;;;6.43;1.67;;;;;;;;;;5004633;28;20072;-60
2022/10/25 00:31:04;;;;;;;7.78;2.03;;;;;;;;;;4983339;28;20065;-59
2022/10/25 00:33:31;;;;;;;8.57;2.22;;;;;;;;;;4978900;28;20097;-60
2022/10/25 00:36:03;;;;;;;5.82;1.80;;;;;;;;;;4981462;28;20195;-60
2022/10/25 00:38:29;;;;;;;9.18;2.10;;;;;;;;;;5011223;28;20038;-61
2022/10/25 00:40:54;;;;;;;7.93;1.95;;;;;;;;;;5001277;28;20112;-60
2022/10/25 00:43:41;;;;;;;6.45;1.80;;;;;;;;;;4975262;28;20034;-61
2022/10/25 00:46:12;;;;;;;6.93;1.90;;;;;;;;;;4989455;28;20066;-61
2022/10/25 00:48:40;;;;;;;8.02;2.15;;;;;;;;;;4977805;28;20083;-61
2022/10/25 00:51:06;;;;;;;11.15;2.30;;;;;;;;;;4996899;28;20057;-61
2022/10/25 00:53:35;;;;;;;9.55;2.22;;;;;;;;;;4974885;28;20480;-60
2022/10/25 00:56:22;;;;;;;7.53;1.95;;;;;;;;;;4981042;28;20069;-60
2022/10/25 00:58:52;;;;;;;5.90;1.60;;;;;;;;;;4973912;28;20031;-61
2022/10/25 01:01:18;;;;;;;5.47;1.90;;;;;;;;;;4983046;28;20034;-60
2022/10/25 01:03:47;;;;;;;9.00;2.00;;;;;;;;;;4973729;28;20043;-61
2022/10/25 01:06:36;;;;;;;7.50;1.90;;;;;;;;;;5003734;28;20748;-61
2022/10/25 01:09:02;;;;;;;7.70;1.70;;;;;;;;;;4993655;28;20959;-60
2022/10/25 01:11:27;;;;;;;6.60;1.77;;;;;;;;;;5007615;28;20117;-60
2022/10/25 01:13:54;;;;;;;8.82;2.10;;;;;;;;;;4989919;28;20027;-61
2022/10/25 01:16:43;;;;;;;7.63;2.00;;;;;;;;;;4976911;28;20034;-61
2022/10/25 01:19:14;;;;;;;10.02;2.15;;;;;;;;;;4981692;28;20025;-60
2022/10/25 01:22:07;;;;;;;9.30;2.47;;;;;;;;;;4986333;28;20066;-62
2022/10/25 01:24:54;;;;;;;8.02;2.17;;;;;;;;;;4992198;28;20050;-61
2022/10/25 01:27:29;;;;;;;10.15;1.90;;;;;;;;;;4975053;28;20058;-60
2022/10/25 01:30:02;;;;;;;6.40;2.10;;;;;;;;;;4984497;28;20045;-61
2022/10/25 01:32:59;;;;;;;3.70;1.73;;;;;;;;;;4974029;28;20039;-61
2022/10/25 01:35:47;;;;;;;17.02;2.30;;;;;;;;;;4983141;28;20042;-62
2022/10/25 01:38:34;;;;;;;9.40;2.20;;;;;;;;;;4988518;28;20043;-60
2022/10/25 01:41:18;;;;;;;7.47;2.55;;;;;;;;;;4986042;28;20030;-60
2022/10/25 01:43:56;;;;;;;11.50;3.30;;;;;;;;;;4979483;28;20039;-61
2022/10/25 01:46:40;;;;;;;9.48;2.42;;;;;;;;;;4989737;28;20051;-60
2022/10/25 01:49:13;;;;;;;9.35;2.63;;;;;;;;;;4976041;28;20468;-60
2022/10/25 01:51:38;;;;;;;9.60;2.13;;;;;;;;;;4973139;28;20034;-63
2022/10/25 01:54:20;;;;;;;7.63;2.13;;;;;;;;;;4983754;28;20419;-60
2022/10/25 01:57:03;;;;;;;13.82;2.47;;;;;;;;;;4978093;28;20038;-60
2022/10/25 02:00:03;;;;;;;9.60;1.88;;;;;;;;;;4991578;28;20066;-60
2022/10/25 02:02:37;;;;;;;9.70;2.20;;;;;;;;;;4987499;28;20117;-60
2022/10/25 02:05:17;;;;;;;7.68;2.10;;;;;;;;;;4987879;28;20193;-60
2022/10/25 02:07:58;;;;;;;7.23;1.87;;;;;;;;;;4980709;28;20054;-61
2022/10/25 02:10:49;;;;;;;8.65;2.20;;;;;;;;;;4996920;28;20066;-61
2022/10/25 02:13:25;;;;;;;13.48;2.38;;;;;;;;;;4985741;28;20039;-61
2022/10/25 02:16:08;;;;;;;12.98;2.42;;;;;;;;;;4990908;28;20121;-61
2022/10/25 02:18:37;;;;;;;7.93;2.45;;;;;;;;;;4995496;28;20113;-61
2022/10/25 02:21:04;;;;;;;10.52;1.90;;;;;;;;;;4980906;28;20042;-61
2022/10/25 02:23:34;;;;;;;8.30;2.20;;;;;;;;;;4983027;28;20078;-61
2022/10/25 02:26:02;;;;;;;12.88;2.25;;;;;;;;;;4971979;28;20074;-61
2022/10/25 02:28:29;;;;;;;10.70;2.70;;;;;;;;;;4972458;28;20035;-62
2022/10/25 02:30:56;;;;;;;8.68;2.20;;;;;;;;;;4972820;28;20030;-61
2022/10/25 02:33:21;;;;;;;10.75;2.28;;;;;;;;;;4988269;28;20034;-61
2022/10/25 02:36:17;;;;;;;8.98;2.40;;;;;;;;;;4997706;28;20030;-61
2022/10/25 02:38:43;;;;;;;8.05;2.13;;;;;;;;;;4983511;28;20139;-62
2022/10/25 02:44:30;;;;;;;7.65;2.15;;;;;;;;;;4977886;28;20071;-62
2022/10/25 02:46:56;;;;;;;8.38;2.42;;;;;;;;;;4974095;28;20400;-61
2022/10/25 02:49:21;;;;;;;9.10;2.13;;;;;;;;;;5006141;28;20398;-60
2022/10/25 02:51:47;;;;;;;10.90;2.55;;;;;;;;;;4993114;28;20045;-61
2022/10/25 02:54:12;;;;;;;9.00;2.50;;;;;;;;;;4983290;28;20049;-62
2022/10/25 02:56:37;;;;;;;7.10;2.22;;;;;;;;;;4978114;28;20038;-62
2022/10/25 02:59:03;;;;;;;8.23;2.13;;;;;;;;;;5002437;28;20266;-61
2022/10/25 03:01:28;;;;;;;9.90;2.40;;;;;;;;;;4982630;28;20030;-61
2022/10/25 03:03:54;;;;;;;8.82;2.40;;;;;;;;;;4974442;28;20054;-60
2022/10/25 03:06:19;;;;;;;8.60;2.10;;;;;;;;;;4977644;28;20475;-61
2022/10/25 03:08:45;;;;;;;10.52;2.30;;;;;;;;;;4994050;28;20069;-62
2022/10/25 03:11:14;;;;;;;10.30;2.25;;;;;;;;;;4981791;28;20065;-61
2022/10/25 03:13:39;;;;;;;12.27;2.65;;;;;;;;;;4990947;28;20041;-61
2022/10/25 03:16:05;;;;;;;8.55;2.28;;;;;;;;;;4977528;28;20034;-61
2022/10/25 03:18:30;;;;;;;17.30;2.50;;;;;;;;;;4975744;28;20034;-61
2022/10/25 03:20:57;;;;;;;9.43;2.50;;;;;;;;;;4981107;28;20089;-62
2022/10/25 03:23:23;;;;;;;7.68;2.20;;;;;;;;;;4974857;28;20069;-62
2022/10/25 03:25:57;;;;;;;11.15;2.55;;;;;;;;;;4973447;28;20039;-60
2022/10/25 03:28:22;;;;;;;7.57;2.33;;;;;;;;;;4986700;28;20044;-61
2022/10/25 03:30:48;;;;;;;11.15;3.13;;;;;;;;;;4978357;28;20035;-61
2022/10/25 03:33:13;;;;;;;13.43;2.55;;;;;;;;;;4987335;28;20061;-60
2022/10/25 03:35:39;;;;;;;9.55;2.40;;;;;;;;;;4989185;28;20419;-60
2022/10/25 03:38:04;;;;;;;10.45;2.08;;;;;;;;;;4988988;28;20722;-60
2022/10/25 03:40:30;;;;;;;7.85;2.20;;;;;;;;;;4992069;28;20046;-60
2022/10/25 03:42:55;;;;;;;9.95;2.47;;;;;;;;;;4976865;28;20464;-61
2022/10/25 03:45:21;;;;;;;9.90;2.50;;;;;;;;;;5003792;28;20490;-62
2022/10/25 03:47:46;;;;;;;14.63;2.80;;;;;;;;;;4971807;28;20449;-62
2022/10/25 03:50:12;;;;;;;9.05;2.60;;;;;;;;;;5005728;28;20056;-61
2022/10/25 03:52:38;;;;;;;9.27;2.40;;;;;;;;;;4972041;28;20094;-62
2022/10/25 03:55:03;;;;;;;9.20;2.20;;;;;;;;;;4976740;28;20034;-62
2022/10/25 03:57:29;;;;;;;9.07;2.55;;;;;;;;;;4971822;28;20044;-62
2022/10/25 03:59:56;;;;;;;11.57;2.42;;;;;;;;;;5003457;28;20061;-62
2022/10/25 04:02:22;;;;;;;7.32;2.25;;;;;;;;;;4986883;28;20030;-61
2022/10/25 04:04:47;;;;;;;9.77;2.50;;;;;;;;;;4993826;28;20038;-63
2022/10/25 04:07:12;;;;;;;11.13;3.63;;;;;;;;;;4989169;28;20038;-62
2022/10/25 04:09:38;;;;;;;9.52;2.50;;;;;;;;;;4987788;28;20079;-62
2022/10/25 04:12:03;;;;;;;11.52;2.35;;;;;;;;;;4997340;28;20361;-62
2022/10/25 04:14:29;;;;;;;11.35;2.55;;;;;;;;;;5004442;28;20038;-62
2022/10/25 04:16:54;;;;;;;6.53;2.20;;;;;;;;;;4993407;28;20101;-61
2022/10/25 04:19:19;;;;;;;8.82;2.50;;;;;;;;;;5004216;28;20042;-61
2022/10/25 04:21:45;;;;;;;7.88;2.42;;;;;;;;;;5012540;28;20046;-61
2022/10/25 04:24:11;;;;;;;6.05;2.65;;;;;;;;;;5011770;28;20061;-61
2022/10/25 04:26:36;;;;;;;8.07;2.75;;;;;;;;;;5012615;28;20065;-62
2022/10/25 04:29:03;;;;;;;9.00;2.58;;;;;;;;;;4995541;28;20112;-61
2022/10/25 04:31:31;;;;;;;7.03;2.30;;;;;;;;;;5014592;28;20424;-61
2022/10/25 04:33:56;;;;;;;8.23;2.35;;;;;;;;;;5001155;28;20060;-61
2022/10/25 04:36:22;;;;;;;9.23;2.58;;;;;;;;;;5007570;28;20434;-61
2022/10/25 04:38:52;;;;;;;8.32;2.85;;;;;;;;;;5011621;28;20038;-62
2022/10/25 04:41:18;;;;;;;7.55;2.50;;;;;;;;;;5014525;28;20026;-61
2022/10/25 04:43:44;;;;;;;8.88;3.17;;;;;;;;;;5013249;28;20038;-60
2022/10/25 04:46:10;;;;;;;6.93;3.05;;;;;;;;;;5006283;28;20028;-60
2022/10/25 04:48:40;;;;;;;9.35;3.55;;;;;;;;;;5014552;28;20044;-60
2022/10/25 04:51:07;;;;;;;11.73;3.25;;;;;;;;;;5011865;28;20113;-60
2022/10/25 04:53:32;;;;;;;8.40;2.97;;;;;;;;;;5013990;28;20037;-60
2022/10/25 04:56:00;;;;;;;11.18;2.80;;;;;;;;;;5011115;28;20084;-60
2022/10/25 04:58:26;;;;;;;10.02;3.30;;;;;;;;;;4993737;28;20415;-62
2022/10/25 05:00:53;;;;;;;5.60;2.67;;;;;;;;;;5002208;28;20034;-66
2022/10/25 05:03:19;;;;;;;8.77;3.80;;;;;;;;;;4986941;28;20058;-65
2022/10/25 05:05:45;;;;;;;9.65;2.92;;;;;;;;;;4997651;28;20041;-64
2022/10/25 05:08:10;;;;;;;9.05;2.80;;;;;;;;;;5011050;28;20038;-64
2022/10/25 05:10:36;;;;;;;10.82;2.67;;;;;;;;;;5009420;28;20068;-65
2022/10/25 05:13:01;;;;;;;12.13;3.13;;;;;;;;;;5005153;28;20489;-63
2022/10/25 05:15:27;;;;;;;8.50;3.40;;;;;;;;;;5008906;28;20391;-63
2022/10/25 05:17:57;;;;;;;7.68;3.30;;;;;;;;;;5010618;28;20034;-65
2022/10/25 05:20:22;;;;;;;9.50;3.22;;;;;;;;;;4989126;28;20042;-64
2022/10/25 05:22:48;;;;;;;6.70;3.10;;;;;;;;;;4990135;28;20054;-62
2022/10/25 05:25:13;;;;;;;7.00;3.20;;;;;;;;;;4993662;28;20037;-65
2022/10/25 05:27:39;;;;;;;6.53;2.53;;;;;;;;;;5002602;28;20096;-65
2022/10/25 05:30:05;;;;;;;9.77;2.85;;;;;;;;;;5012265;28;20036;-64
2022/10/25 05:32:30;;;;;;;7.78;2.92;;;;;;;;;;5006792;28;20030;-67
2022/10/25 05:34:55;;;;;;;5.65;2.83;;;;;;;;;;5013102;28;20045;-67
2022/10/25 05:37:21;;;;;;;9.77;3.10;;;;;;;;;;4986622;28;20035;-68
2022/10/25 05:39:46;;;;;;;11.10;3.13;;;;;;;;;;4985812;28;20471;-68
2022/10/25 05:42:12;;;;;;;8.57;3.30;;;;;;;;;;4999037;28;20022;-68
2022/10/25 05:44:37;;;;;;;7.57;2.90;;;;;;;;;;4999781;28;20045;-66
2022/10/25 05:47:02;;;;;;;9.65;3.50;;;;;;;;;;4998877;28;20038;-67
2022/10/25 05:49:28;;;;;;;8.95;3.15;;;;;;;;;;5013088;28;20061;-65
2022/10/25 05:51:53;;;;;;;8.82;3.00;;;;;;;;;;5006907;28;20072;-66
2022/10/25 05:54:19;;;;;;;13.13;3.13;;;;;;;;;;4995673;28;20034;-64
2022/10/25 05:56:44;;;;;;;7.68;3.00;;;;;;;;;;4994317;28;20038;-66
2022/10/25 05:59:13;;;;;;;8.25;2.90;;;;;;;;;;4993839;28;20039;-68
2022/10/25 06:01:44;;;;;;;16.35;3.53;;;;;;;;;;4995665;28;20120;-67
2022/10/25 06:04:10;;;;;;;11.38;3.15;;;;;;;;;;5006966;28;20037;-66
2022/10/25 06:06:37;;;;;;;7.47;2.88;;;;;;;;;;5011484;28;20034;-67
2022/10/25 06:09:03;;;;;;;9.23;2.83;;;;;;;;;;5011636;28;20033;-67
2022/10/25 06:11:29;;;;;;;9.70;3.00;;;;;;;;;;4990399;28;20328;-67
2022/10/25 06:13:54;;;;;;;9.75;3.25;;;;;;;;;;5009873;28;20063;-67
2022/10/25 06:16:20;;;;;;;13.43;3.10;;;;;;;;;;5011195;28;20541;-67
2022/10/25 06:18:46;;;;;;;9.18;2.90;;;;;;;;;;5012461;28;20060;-67
2022/10/25 06:21:17;;;;;;;10.05;2.90;;;;;;;;;;5006534;28;20581;-67
2022/10/25 06:23:44;;;;;;;7.75;2.67;;;;;;;;;;5005378;28;20073;-67
2022/10/25 06:26:13;;;;;;;11.13;3.42;;;;;;;;;;5003356;28;20042;-66
2022/10/25 06:28:38;;;;;;;8.65;3.20;;;;;;;;;;4986140;28;20061;-65
2022/10/25 06:31:09;;;;;;;8.40;2.95;;;;;;;;;;4998639;28;20390;-65
2022/10/25 06:33:34;;;;;;;4.73;2.10;;;;;;;;;;5010356;28;20482;-67
2022/10/25 06:36:01;;;;;;;10.73;2.80;;;;;;;;;;5008585;28;20034;-66
2022/10/25 06:38:28;;;;;;;9.68;2.67;;;;;;;;;;4995761;28;20034;-66
2022/10/25 06:41:01;;;;;;;8.82;2.65;;;;;;;;;;4997540;28;20029;-65
2022/10/25 06:43:27;;;;;;;9.60;2.90;;;;;;;;;;5000568;28;20152;-66
2022/10/25 06:45:53;;;;;;;8.60;2.70;;;;;;;;;;4982450;28;20130;-64
2022/10/25 06:48:19;;;;;;;11.73;3.00;;;;;;;;;;4986096;28;20440;-66
2022/10/25 06:50:44;;;;;;;7.80;2.78;;;;;;;;;;5002607;28;20044;-67
2022/10/25 06:53:10;;;;;;;12.07;3.20;;;;;;;;;;5004098;28;20034;-67
2022/10/25 06:55:35;;;;;;;7.20;2.78;;;;;;;;;;5011802;28;20489;-68
2022/10/25 06:58:00;;;;;;;10.77;2.97;;;;;;;;;;5001362;28;20030;-67
2022/10/25 07:00:26;;;;;;;10.48;3.30;;;;;;;;;;5011673;28;20041;-66
2022/10/25 07:02:58;;;;;;;10.07;2.95;;;;;;;;;;4982225;28;20530;-64
2022/10/25 07:05:25;;;;;;;11.40;3.08;;;;;;;;;;4989193;28;20030;-65
2022/10/25 07:07:51;;;;;;;14.40;3.55;;;;;;;;;;4999187;28;20471;-67
2022/10/25 07:10:16;;;;;;;9.38;3.20;;;;;;;;;;5010775;28;20430;-63
2022/10/25 07:12:42;;;;;;;10.98;3.08;;;;;;;;;;5009976;28;20060;-66
2022/10/25 07:15:08;;;;;;;7.72;3.05;;;;;;;;;;4995792;28;20459;-65
2022/10/25 07:17:33;;;;;;;6.45;3.00;;;;;;;;;;4998267;28;20506;-64
2022/10/25 07:19:59;;;;;;;10.45;3.70;;;;;;;;;;4991954;28;20051;-64
2022/10/25 07:22:24;;;;;;;10.75;3.28;;;;;;;;;;5009469;28;20042;-65
2022/10/25 07:24:50;;;;;;;11.13;3.25;;;;;;;;;;5006194;28;20042;-63
2022/10/25 07:27:15;;;;;;;9.20;2.83;;;;;;;;;;5008450;28;20033;-62
2022/10/25 07:29:40;;;;;;;8.30;2.88;;;;;;;;;;5008718;28;20139;-62
2022/10/25 07:32:07;;;;;;;13.60;3.80;;;;;;;;;;5009165;28;20470;-63
2022/10/25 07:34:32;;;;;;;11.70;3.50;;;;;;;;;;5006130;28;20116;-63
2022/10/25 07:36:58;;;;;;;9.93;3.40;;;;;;;;;;4977733;28;20065;-64
2022/10/25 07:39:23;;;;;;;13.60;4.22;;;;;;;;;;5006498;28;20057;-65
2022/10/25 07:41:49;;;;;;;13.13;3.42;;;;;;;;;;4993146;28;20042;-65
2022/10/25 07:44:15;;;;;;;7.72;3.72;;;;;;;;;;5004061;28;20041;-65
2022/10/25 07:46:40;;;;;;;8.13;4.20;;;;;;;;;;5015373;28;20386;-66
2022/10/25 07:49:05;;;;;;;13.70;4.93;;;;;;;;;;5010661;28;20041;-65
2022/10/25 07:51:31;;;;;;;7.95;4.22;;;;;;;;;;5013115;28;20065;-62
2022/10/25 07:53:56;;;;;;;14.50;4.75;;;;;;;;;;4994909;28;20564;-62
2022/10/25 07:56:21;;;;;;;10.15;5.10;;;;;;;;;;5011816;28;20038;-64
2022/10/25 07:58:47;;;;;;;11.13;4.95;;;;;;;;;;5003831;28;20057;-66
2022/10/25 08:01:18;;;;;;;13.98;5.32;;;;;;;;;;5011133;28;20109;-64
2022/10/25 08:03:43;;;;;;;8.43;4.05;;;;;;;;;;5001167;28;20037;-65
2022/10/25 08:06:09;;;;;;;9.80;4.72;;;;;;;;;;4994511;28;20034;-65
2022/10/25 08:08:35;;;;;;;10.07;4.25;;;;;;;;;;5004623;28;20083;-64
2022/10/25 08:11:03;;;;;;;14.20;4.40;;;;;;;;;;4987801;28;20041;-64
2022/10/25 08:13:28;;;;;;;9.15;4.05;;;;;;;;;;4995039;28;20080;-65
2022/10/25 08:15:55;;;;;;;10.38;4.55;;;;;;;;;;5004671;28;20124;-66
2022/10/25 08:18:21;;;;;;;14.48;4.68;;;;;;;;;;5013426;28;20028;-66
2022/10/25 08:20:47;;;;;;;12.00;4.68;;;;;;;;;;5011646;28;20479;-66
2022/10/25 08:23:13;;;;;;;13.10;5.03;;;;;;;;;;5013671;28;20073;-66
2022/10/25 08:25:39;;;;;;;11.57;4.88;;;;;;;;;;5008146;28;20038;-66
2022/10/25 08:28:04;;;;;;;12.45;5.55;;;;;;;;;;4988165;28;20046;-66
2022/10/25 08:30:29;;;;;;;15.02;5.78;;;;;;;;;;5005264;28;20045;-65
2022/10/25 08:32:55;;;;;;;12.82;5.70;;;;;;;;;;5013168;28;20042;-64
2022/10/25 08:35:20;;;;;;;12.48;6.10;;;;;;;;;;5007441;28;20030;-66
2022/10/25 08:37:46;;;;;;;10.40;6.10;;;;;;;;;;5011498;28;20126;-65
2022/10/25 08:40:20;;;;;;;12.20;5.18;;;;;;;;;;5012122;28;20022;-66
2022/10/25 08:43:14;;;;;;;13.18;5.45;;;;;;;;;;5010993;28;20026;-65
2022/10/25 08:45:53;;;;;;;11.63;5.32;;;;;;;;;;5011658;28;20041;-62
2022/10/25 08:48:22;;;;;;;12.57;5.78;;;;;;;;;;5006470;28;20038;-63
2022/10/25 08:50:54;;;;;;;12.18;5.35;;;;;;;;;;5013993;28;20172;-64
2022/10/25 08:53:29;;;;;;;10.35;5.15;;;;;;;;;;4985661;28;20050;-63
2022/10/25 08:55:55;;;;;;;12.75;5.00;;;;;;;;;;5001048;28;20037;-65
2022/10/25 08:58:30;;;;;;;12.38;5.65;;;;;;;;;;5009650;28;20034;-63
2022/10/25 09:01:01;;;;;;;10.10;5.28;;;;;;;;;;4990537;28;20041;-61
2022/10/25 09:03:26;;;;;;;11.15;4.95;;;;;;;;;;5001526;28;20112;-64
2022/10/25 09:06:10;;;;;;;13.23;4.80;;;;;;;;;;5012149;28;20164;-64
2022/10/25 09:08:57;;;;;;;11.70;5.22;;;;;;;;;;5011060;28;20041;-62
2022/10/25 09:11:43;;;;;;;13.98;5.72;;;;;;;;;;5011407;28;20121;-64
2022/10/25 09:14:39;;;;;;;9.68;5.20;;;;;;;;;;4986264;28;20062;-62
2022/10/25 09:17:22;;;;;;;14.48;5.95;;;;;;;;;;5001706;28;20061;-62
2022/10/25 09:20:19;;;;;;;12.05;5.47;;;;;;;;;;4974356;28;20038;-65
2022/10/25 09:22:47;;;;;;;14.63;5.47;;;;;;;;;;4997041;28;20381;-65
2022/10/25 09:25:21;;;;;;;11.98;5.88;;;;;;;;;;5011179;28;20109;-64
2022/10/25 09:28:10;;;;;;;12.20;5.13;;;;;;;;;;5005104;28;20081;-65
2022/10/25 09:30:41;;;;;;;11.63;4.80;;;;;;;;;;5011440;28;20487;-64
2022/10/25 09:33:13;;;;;;;11.85;5.32;;;;;;;;;;5007879;28;20141;-62
2022/10/25 09:35:45;;;;;;;8.70;4.50;;;;;;;;;;4992728;28;20034;-63
2022/10/25 09:38:18;;;;;;;12.18;5.18;;;;;;;;;;5006907;28;20057;-66
2022/10/25 09:40:48;;;;;;;8.65;4.53;;;;;;;;;;4993770;28;20034;-64
2022/10/25 09:43:17;;;;;;;8.65;4.57;;;;;;;;;;4992755;28;20483;-64
2022/10/25 09:45:55;;;;;;;11.45;4.75;;;;;;;;;;4993173;28;20038;-62
2022/10/25 09:48:32;;;;;;;9.68;4.60;;;;;;;;;;4997862;28;20467;-62
2022/10/25 09:51:39;;;;;;;11.82;4.85;;;;;;;;;;5001634;28;20502;-63
2022/10/25 09:54:15;;;;;;;10.73;4.78;;;;;;;;;;4982003;28;20077;-61
2022/10/25 09:56:41;;;;;;;10.50;4.68;;;;;;;;;;5012888;28;20034;-63
2022/10/25 09:59:11;;;;;;;8.07;3.80;;;;;;;;;;5006949;28;20026;-63
2022/10/25 10:01:38;;;;;;;10.77;4.40;;;;;;;;;;5010285;28;20466;-62
2022/10/25 10:04:31;;;;;;;9.88;4.30;;;;;;;;;;5005239;28;20038;-63
2022/10/25 10:07:03;;;;;;;9.25;3.97;;;;;;;;;;4972016;28;20479;-63
2022/10/25 10:09:30;;;;;;;10.02;3.83;;;;;;;;;;4987931;28;20034;-61
2022/10/25 10:11:59;;;;;;;10.43;4.15;;;;;;;;;;5004721;28;20040;-61
2022/10/25 10:14:35;;;;;;;7.82;4.22;;;;;;;;;;5009558;28;20069;-64
2022/10/25 10:17:02;;;;;;;10.07;4.50;;;;;;;;;;5010174;28;20034;-65
2022/10/25 10:19:28;;;;;;;10.85;4.10;;;;;;;;;;5010936;28;20069;-66
2022/10/25 10:22:06;;;;;;;7.97;4.07;;;;;;;;;;5004019;28;20034;-64
2022/10/25 10:24:39;;;;;;;10.43;4.20;;;;;;;;;;5011675;28;20104;-62
2022/10/25 10:27:26;;;;;;;7.70;3.97;;;;;;;;;;4999277;28;20049;-62
2022/10/25 10:29:58;;;;;;;10.07;3.95;;;;;;;;;;5012707;28;20112;-62
2022/10/25 10:32:34;;;;;;;10.77;4.00;;;;;;;;;;5007238;28;20029;-62
2022/10/25 10:35:01;;;;;;;9.35;3.53;;;;;;;;;;5009920;28;20046;-61
2022/10/25 10:37:29;;;;;;;9.55;3.40;;;;;;;;;;5009452;28;20046;-63
2022/10/25 10:40:03;;;;;;;9.90;3.50;;;;;;;;;;5010085;28;20042;-63
2022/10/25 10:42:28;;;;;;;10.65;3.80;;;;;;;;;;4995479;28;20076;-61
2022/10/25 10:45:02;;;;;;;9.05;3.13;;;;;;;;;;4994520;28;20037;-62
2022/10/25 10:47:35;;;;;;;12.38;3.65;;;;;;;;;;5005449;28;20112;-61
2022/10/25 10:50:09;;;;;;;7.45;2.78;;;;;;;;;;5003041;28;20034;-62
2022/10/25 10:52:40;;;;;;;7.47;2.95;;;;;;;;;;4984975;28;20464;-61
2022/10/25 10:55:20;;;;;;;8.30;2.97;;;;;;;;;;4999995;28;20041;-63
2022/10/25 10:57:46;;;;;;;8.32;3.05;;;;;;;;;;5007945;28;20038;-67
2022/10/25 11:00:23;;;;;;;8.73;3.05;;;;;;;;;;4982862;28;20142;-64
2022/10/25 11:02:48;;;;;;;10.13;3.15;;;;;;;;;;4996753;28;20184;-64
2022/10/25 11:05:35;;;;;;;6.18;2.80;;;;;;;;;;5010866;28;20510;-64
2022/10/25 11:08:20;;;;;;;8.48;2.67;;;;;;;;;;5008625;28;20276;-65
2022/10/25 11:10:45;;;;;;;12.02;3.40;;;;;;;;;;5011778;28;20121;-61
2022/10/25 11:13:22;;;;;;;9.60;2.90;;;;;;;;;;5007559;28;20139;-65
2022/10/25 11:16:00;;;;;;;10.45;3.20;;;;;;;;;;5006735;28;20427;-65
2022/10/25 11:18:57;;;;;;;5.82;2.83;;;;;;;;;;4972725;28;20104;-65
2022/10/25 11:21:31;;;;;;;10.52;3.00;;;;;;;;;;4981718;28;20483;-65
2022/10/25 11:24:24;;;;;;;6.32;2.63;;;;;;;;;;4975844;28;20050;-64
2022/10/25 11:26:59;;;;;;;8.20;2.70;;;;;;;;;;4997264;28;20120;-65
2022/10/25 11:29:52;;;;;;;11.38;2.45;;;;;;;;;;5015520;28;20078;-64
2022/10/25 11:33:02;;;;;;;8.55;2.63;;;;;;;;;;5009498;28;20064;-64
2022/10/25 11:35:42;;;;;;;8.68;2.70;;;;;;;;;;4968885;28;20043;-64
2022/10/25 11:38:20;;;;;;;6.13;2.88;;;;;;;;;;5014395;28;20061;-63
2022/10/25 11:41:00;;;;;;;7.20;2.25;;;;;;;;;;5010165;28;20538;-64
2022/10/25 11:43:44;;;;;;;6.85;2.00;;;;;;;;;;4986946;28;20038;-63
2022/10/25 11:46:37;;;;;;;7.15;2.05;;;;;;;;;;5008647;28;20038;-63
2022/10/25 11:49:11;;;;;;;6.15;1.83;;;;;;;;;;4983732;28;20049;-63
2022/10/25 11:52:01;;;;;;;5.22;1.95;;;;;;;;;;4983291;28;20049;-63
2022/10/25 11:54:38;;;;;;;5.05;1.83;;;;;;;;;;5004643;28;20038;-64
2022/10/25 11:57:13;;;;;;;7.60;2.03;;;;;;;;;;5002914;28;20052;-63
2022/10/25 11:59:57;;;;;;;4.57;1.80;;;;;;;;;;5014354;28;20497;-62
2022/10/25 12:02:37;;;;;;;8.27;2.40;;;;;;;;;;4993780;28;20022;-62
2022/10/25 12:05:36;;;;;;;6.10;2.05;;;;;;;;;;5011595;28;20184;-66
2022/10/25 12:08:38;;;;;;;5.28;2.00;;;;;;;;;;4989821;28;20027;-63
2022/10/25 12:11:09;;;;;;;5.07;1.92;;;;;;;;;;5002589;28;20041;-64
2022/10/25 12:13:45;;;;;;;;;;;;;;;;;;5005298;28;20494;-64
2022/10/25 12:16:16;;;;;;;9.02;2.00;;;;;;;;;;4994979;28;19993;-64
2022/10/25 12:18:46;;;;;;;5.13;2.00;;;;;;;;;;5004006;28;20030;-65
2022/10/25 12:21:18;;;;;;;5.25;2.20;;;;;;;;;;5006384;28;20026;-65
2022/10/25 12:23:48;;;;;;;5.43;2.00;;;;;;;;;;5011226;28;20556;-65
2022/10/25 12:26:16;;;;;;;7.68;2.42;;;;;;;;;;4980533;28;20503;-64
2022/10/25 12:28:47;;;;;;;4.65;2.00;;;;;;;;;;4983798;28;20041;-63
2022/10/25 12:31:24;;;;;;;7.75;2.65;;;;;;;;;;4995329;28;20049;-64
2022/10/25 12:34:39;;;;;;;7.20;2.75;;;;;;;;;;5007171;28;20037;-65
2022/10/25 12:37:13;;;;;;;7.50;2.42;;;;;;;;;;5001325;28;20133;-64
2022/10/25 12:39:43;;;;;;;13.07;2.90;;;;;;;;;;5005117;28;20467;-65
2022/10/25 12:42:14;;;;;;;6.27;2.40;;;;;;;;;;5007845;28;20022;-63
2022/10/25 12:45:14;;;;;;;6.25;2.33;;;;;;;;;;5010337;28;20025;-64
2022/10/25 12:47:58;;;;;;;5.97;1.92;;;;;;;;;;5001081;28;20030;-64
2022/10/25 12:51:00;;;;;;;3.83;2.00;;;;;;;;;;5012762;28;20079;-64
2022/10/25 12:53:44;;;;;;;5.85;2.20;;;;;;;;;;5005183;28;20058;-64
2022/10/25 12:56:12;;;;;;;6.20;2.00;;;;;;;;;;5009443;28;20041;-64
2022/10/25 12:58:51;;;;;;;7.82;2.50;;;;;;;;;;4984085;28;20026;-65
2022/10/25 13:02:05;;;;;;;3.90;2.15;;;;;;;;;;5004172;28;20034;-63
2022/10/25 13:04:52;;;;;;;6.47;2.63;;;;;;;;;;4983484;28;20396;-65
2022/10/25 13:07:19;;;;;;;8.43;2.45;;;;;;;;;;4993306;28;20391;-65
2022/10/25 13:09:45;;;;;;;4.30;2.60;;;;;;;;;;5007344;28;20112;-65
2022/10/25 13:12:14;;;;;;;5.88;2.30;;;;;;;;;;5012466;28;20210;-65
2022/10/25 13:14:49;;;;;;;2.95;1.92;;;;;;;;;;5009923;28;20438;-65
2022/10/25 13:17:14;;;;;;;6.13;2.10;;;;;;;;;;4992069;28;20621;-67
2022/10/25 13:19:40;;;;;;;4.38;2.05;;;;;;;;;;5009518;28;20041;-66
2022/10/25 13:22:28;;;;;;;4.53;1.95;;;;;;;;;;5012252;28;20466;-65
2022/10/25 13:24:54;;;;;;;5.13;2.20;;;;;;;;;;5011171;28;20037;-65
2022/10/25 13:27:33;;;;;;;5.53;2.33;;;;;;;;;;5012767;28;20076;-65
2022/10/25 13:30:05;;;;;;;5.18;1.88;;;;;;;;;;5010779;28;20036;-65
2022/10/25 13:32:33;;;;;;;3.78;2.10;;;;;;;;;;5010361;28;20038;-66
2022/10/25 13:35:01;;;;;;;4.60;2.30;;;;;;;;;;5002006;28;20034;-66
2022/10/25 13:37:29;;;;;;;4.32;2.10;;;;;;;;;;5012933;28;20080;-65
2022/10/25 13:39:57;;;;;;;4.90;2.20;;;;;;;;;;4994140;28;20030;-65
2022/10/25 13:42:29;;;;;;;7.65;2.15;;;;;;;;;;4980916;28;20049;-65
2022/10/25 13:45:00;;;;;;;5.47;2.28;;;;;;;;;;4993113;28;20036;-64
2022/10/25 13:47:44;;;;;;;6.97;2.33;;;;;;;;;;4993392;28;20039;-66
2022/10/25 13:50:17;;;;;;;5.13;2.20;;;;;;;;;;4991931;28;20364;-66
2022/10/25 13:52:58;;;;;;;4.88;1.92;;;;;;;;;;4979109;28;20042;-66
2022/10/25 13:55:24;;;;;;;6.03;2.33;;;;;;;;;;5007761;28;20037;-65
2022/10/25 13:57:54;;;;;;;6.70;2.25;;;;;;;;;;4998584;28;20073;-66
2022/10/25 14:00:25;;;;;;;7.47;2.28;;;;;;;;;;5010642;28;20036;-66
2022/10/25 14:03:08;;;;;;;5.60;2.40;;;;;;;;;;5010344;28;20029;-66
2022/10/25 14:05:52;;;;;;;5.38;2.10;;;;;;;;;;5013041;28;20108;-66
2022/10/25 14:08:28;;;;;;;6.22;1.98;;;;;;;;;;4994988;28;20038;-65
2022/10/25 14:10:54;;;;;;;5.90;2.05;;;;;;;;;;5012832;28;20026;-67
2022/10/25 14:14:04;;;;;;;4.75;1.95;;;;;;;;;;5011507;28;20390;-65
2022/10/25 14:16:32;;;;;;;6.50;2.10;;;;;;;;;;5011150;28;20026;-66
2022/10/25 14:19:04;;;;;;;7.50;1.90;;;;;;;;;;5025204;28;20474;-66
2022/10/25 14:21:30;;;;;;;8.75;2.00;;;;;;;;;;5008557;28;20037;-65
2022/10/25 14:23:56;;;;;;;7.20;2.38;;;;;;;;;;5006101;28;20125;-65
2022/10/25 14:26:23;;;;;;;3.63;1.80;;;;;;;;;;4990564;28;20109;-67
2022/10/25 14:28:49;;;;;;;4.40;1.88;;;;;;;;;;4992577;28;20033;-66
2022/10/25 14:31:20;;;;;;;9.05;2.55;;;;;;;;;;4991632;28;20030;-65
2022/10/25 14:33:52;;;;;;;6.85;1.98;;;;;;;;;;4992618;28;20081;-67
2022/10/25 14:36:28;;;;;;;6.25;2.10;;;;;;;;;;5005170;28;20038;-65
2022/10/25 14:39:03;;;;;;;4.65;1.92;;;;;;;;;;4973179;28;20030;-67
2022/10/25 14:41:34;;;;;;;10.30;2.42;;;;;;;;;;4997595;28;20058;-64
2022/10/25 14:44:01;;;;;;;5.78;2.15;;;;;;;;;;4991659;28;20030;-66
2022/10/25 14:46:29;;;;;;;5.55;2.30;;;;;;;;;;5006440;28;20467;-66
2022/10/25 14:48:58;;;;;;;5.13;2.20;;;;;;;;;;5006622;28;20095;-67
2022/10/25 14:51:29;;;;;;;6.03;2.33;;;;;;;;;;5008300;28;20081;-66
2022/10/25 14:54:00;;;;;;;6.72;2.42;;;;;;;;;;5007219;28;20376;-67
2022/10/25 14:56:30;;;;;;;5.05;1.98;;;;;;;;;;5009628;28;20436;-66
2022/10/25 14:58:56;;;;;;;5.85;2.13;;;;;;;;;;4985709;28;20043;-66
2022/10/25 15:01:23;;;;;;;4.07;2.00;;;;;;;;;;4971866;28;20069;-66
2022/10/25 15:03:52;;;;;;;5.32;1.98;;;;;;;;;;5009851;28;20038;-65
2022/10/25 15:06:21;;;;;;;5.07;1.95;;;;;;;;;;5000030;28;20030;-66
2022/10/25 15:08:46;;;;;;;3.72;1.90;;;;;;;;;;5006841;28;20067;-65